sensor_id;sensor_type;location;lat;lon;timestamp;temperature;humidity
38910;DHT22;24676;51.360;12.354;2023-05-07T00:00:54;9.90;99.90
38910;DHT22;24676;51.360;12.354;2023-05-07T00:03:39;9.80;99.90
38910;DHT22;24676;51.360;12.354;2023-05-07T00:06:24;9.80;99.90
38910;DHT22;24676;51.360;12.354;2023-05-07T00:09:10;9.80;99.90
38910;DHT22;24676;51.360;12.354;2023-05-07T00:11:54;9.80;99.90
38910;DHT22;24676;51.360;12.354;2023-05-07T00:14:38;9.90;99.90
38910;DHT22;24676;51.360;12.354;2023-05-07T00:17:23;9.80;99.90
38910;DHT22;24676;51.360;12.354;2023-05-07T00:20:07;9.90;99.90
38910;DHT22;24676;51.360;12.354;2023-05-07T00:22:51;9.80;99.90
38910;DHT22;24676;51.360;12.354;2023-05-07T00:25:35;9.80;99.90
38910;DHT22;24676;51.360;12.354;2023-05-07T00:28:20;9.80;99.90
38910;DHT22;24676;51.360;12.354;2023-05-07T00:31:04;9.80;99.90
38910;DHT22;24676;51.360;12.354;2023-05-07T00:33:48;9.70;99.90
38910;DHT22;24676;51.360;12.354;2023-05-07T00:36:32;9.70;99.90
38910;DHT22;24676;51.360;12.354;2023-05-07T00:39:16;9.80;99.90
38910;DHT22;24676;51.360;12.354;2023-05-07T00:42:01;9.70;99.90
38910;DHT22;24676;51.360;12.354;2023-05-07T00:44:46;9.70;99.90
38910;DHT22;24676;51.360;12.354;2023-05-07T00:47:30;9.80;99.90
38910;DHT22;24676;51.360;12.354;2023-05-07T00:50:15;9.80;99.90
38910;DHT22;24676;51.360;12.354;2023-05-07T00:52:59;9.70;99.90
38910;DHT22;24676;51.360;12.354;2023-05-07T00:55:44;9.70;99.90
38910;DHT22;24676;51.360;12.354;2023-05-07T00:58:28;9.70;99.90
38910;DHT22;24676;51.360;12.354;2023-05-07T01:01:12;9.70;99.90
38910;DHT22;24676;51.360;12.354;2023-05-07T01:03:57;9.70;99.90
38910;DHT22;24676;51.360;12.354;2023-05-07T01:06:42;9.70;99.90
38910;DHT22;24676;51.360;12.354;2023-05-07T01:09:28;9.70;99.90
38910;DHT22;24676;51.360;12.354;2023-05-07T01:12:12;9.70;99.90
38910;DHT22;24676;51.360;12.354;2023-05-07T01:14:57;9.60;99.90
38910;DHT22;24676;51.360;12.354;2023-05-07T01:17:42;9.70;99.90
38910;DHT22;24676;51.360;12.354;2023-05-07T01:20:28;9.60;99.90
38910;DHT22;24676;51.360;12.354;2023-05-07T01:23:12;9.60;99.90
38910;DHT22;24676;51.360;12.354;2023-05-07T01:25:56;9.60;99.90
38910;DHT22;24676;51.360;12.354;2023-05-07T01:28:40;9.60;99.90
38910;DHT22;24676;51.360;12.354;2023-05-07T01:31:25;9.60;99.90
38910;DHT22;24676;51.360;12.354;2023-05-07T01:34:09;9.60;99.90
38910;DHT22;24676;51.360;12.354;2023-05-07T01:36:54;9.60;99.90
38910;DHT22;24676;51.360;12.354;2023-05-07T01:39:39;9.60;99.90
38910;DHT22;24676;51.360;12.354;2023-05-07T01:42:23;9.60;99.90
38910;DHT22;24676;51.360;12.354;2023-05-07T01:45:08;9.60;99.90
38910;DHT22;24676;51.360;12.354;2023-05-07T01:47:52;9.60;99.90
38910;DHT22;24676;51.360;12.354;2023-05-07T01:50:36;9.60;99.90
38910;DHT22;24676;51.360;12.354;2023-05-07T01:53:21;9.60;99.90
38910;DHT22;24676;51.360;12.354;2023-05-07T01:56:05;9.60;99.90
38910;DHT22;24676;51.360;12.354;2023-05-07T01:58:49;9.60;99.90
38910;DHT22;24676;51.360;12.354;2023-05-07T02:01:35;9.60;99.90
38910;DHT22;24676;51.360;12.354;2023-05-07T02:04:19;9.60;99.90
38910;DHT22;24676;51.360;12.354;2023-05-07T02:07:03;9.60;99.90
38910;DHT22;24676;51.360;12.354;2023-05-07T02:09:47;9.50;99.90
38910;DHT22;24676;51.360;12.354;2023-05-07T02:12:31;9.50;99.90
38910;DHT22;24676;51.360;12.354;2023-05-07T02:15:16;9.40;99.90
38910;DHT22;24676;51.360;12.354;2023-05-07T02:18:01;9.40;99.90
38910;DHT22;24676;51.360;12.354;2023-05-07T02:20:46;9.40;99.90
38910;DHT22;24676;51.360;12.354;2023-05-07T02:23:30;9.40;99.90
38910;DHT22;24676;51.360;12.354;2023-05-07T02:26:14;9.40;99.90
38910;DHT22;24676;51.360;12.354;2023-05-07T02:28:58;9.40;99.90
38910;DHT22;24676;51.360;12.354;2023-05-07T02:31:42;9.50;99.90
38910;DHT22;24676;51.360;12.354;2023-05-07T02:34:26;9.40;99.90
38910;DHT22;24676;51.360;12.354;2023-05-07T02:37:11;9.40;99.90
38910;DHT22;24676;51.360;12.354;2023-05-07T02:39:55;9.40;99.90
38910;DHT22;24676;51.360;12.354;2023-05-07T02:42:39;9.40;99.90
38910;DHT22;24676;51.360;12.354;2023-05-07T02:45:23;9.40;99.90
38910;DHT22;24676;51.360;12.354;2023-05-07T02:48:07;9.40;99.90
38910;DHT22;24676;51.360;12.354;2023-05-07T02:50:52;9.40;99.90
38910;DHT22;24676;51.360;12.354;2023-05-07T02:53:36;9.40;99.90
38910;DHT22;24676;51.360;12.354;2023-05-07T02:56:20;9.40;99.90
38910;DHT22;24676;51.360;12.354;2023-05-07T02:59:04;9.40;99.90
38910;DHT22;24676;51.360;12.354;2023-05-07T03:01:48;9.40;99.90
38910;DHT22;24676;51.360;12.354;2023-05-07T03:04:33;9.40;99.90
38910;DHT22;24676;51.360;12.354;2023-05-07T03:07:17;9.40;99.90
38910;DHT22;24676;51.360;12.354;2023-05-07T03:10:01;9.40;99.90
38910;DHT22;24676;51.360;12.354;2023-05-07T03:12:45;9.40;99.90
38910;DHT22;24676;51.360;12.354;2023-05-07T03:15:30;9.40;99.90
38910;DHT22;24676;51.360;12.354;2023-05-07T03:18:14;9.40;99.90
38910;DHT22;24676;51.360;12.354;2023-05-07T03:20:58;9.40;99.90
38910;DHT22;24676;51.360;12.354;2023-05-07T03:23:42;9.40;99.90
38910;DHT22;24676;51.360;12.354;2023-05-07T03:26:27;9.40;99.90
38910;DHT22;24676;51.360;12.354;2023-05-07T03:29:11;9.40;99.90
38910;DHT22;24676;51.360;12.354;2023-05-07T03:31:55;9.40;99.90
38910;DHT22;24676;51.360;12.354;2023-05-07T03:34:39;9.40;99.90
38910;DHT22;24676;51.360;12.354;2023-05-07T03:37:23;9.40;99.90
38910;DHT22;24676;51.360;12.354;2023-05-07T03:40:08;9.40;99.90
38910;DHT22;24676;51.360;12.354;2023-05-07T03:42:54;9.40;99.90
38910;DHT22;24676;51.360;12.354;2023-05-07T03:45:38;9.50;99.90
38910;DHT22;24676;51.360;12.354;2023-05-07T03:48:23;9.50;99.90
38910;DHT22;24676;51.360;12.354;2023-05-07T03:51:07;9.40;99.90
38910;DHT22;24676;51.360;12.354;2023-05-07T03:53:52;9.40;99.90
38910;DHT22;24676;51.360;12.354;2023-05-07T03:56:41;9.40;99.90
38910;DHT22;24676;51.360;12.354;2023-05-07T03:59:24;9.40;99.90
38910;DHT22;24676;51.360;12.354;2023-05-07T04:02:09;9.40;99.90
38910;DHT22;24676;51.360;12.354;2023-05-07T04:04:53;9.40;99.90
38910;DHT22;24676;51.360;12.354;2023-05-07T04:07:37;9.40;99.90
38910;DHT22;24676;51.360;12.354;2023-05-07T04:10:24;9.40;99.90
38910;DHT22;24676;51.360;12.354;2023-05-07T04:13:09;9.50;99.90
38910;DHT22;24676;51.360;12.354;2023-05-07T04:15:54;9.40;99.90
38910;DHT22;24676;51.360;12.354;2023-05-07T04:18:38;9.50;99.90
38910;DHT22;24676;51.360;12.354;2023-05-07T04:21:23;9.50;99.90
38910;DHT22;24676;51.360;12.354;2023-05-07T04:24:07;9.60;99.90
38910;DHT22;24676;51.360;12.354;2023-05-07T04:26:51;9.60;99.90
38910;DHT22;24676;51.360;12.354;2023-05-07T04:29:36;9.70;99.90
38910;DHT22;24676;51.360;12.354;2023-05-07T04:32:20;9.80;99.90
38910;DHT22;24676;51.360;12.354;2023-05-07T04:35:04;9.90;99.90
38910;DHT22;24676;51.360;12.354;2023-05-07T04:37:49;9.90;99.90
38910;DHT22;24676;51.360;12.354;2023-05-07T04:40:33;10.00;99.90
38910;DHT22;24676;51.360;12.354;2023-05-07T04:43:17;9.90;99.90
38910;DHT22;24676;51.360;12.354;2023-05-07T04:46:01;9.90;99.90
38910;DHT22;24676;51.360;12.354;2023-05-07T04:48:45;10.00;99.90
38910;DHT22;24676;51.360;12.354;2023-05-07T04:51:29;10.00;99.90
38910;DHT22;24676;51.360;12.354;2023-05-07T04:54:14;10.00;99.90
38910;DHT22;24676;51.360;12.354;2023-05-07T04:56:58;10.00;99.90
38910;DHT22;24676;51.360;12.354;2023-05-07T04:59:42;9.90;99.90
38910;DHT22;24676;51.360;12.354;2023-05-07T05:02:26;9.90;99.90
38910;DHT22;24676;51.360;12.354;2023-05-07T05:05:11;9.90;99.90
38910;DHT22;24676;51.360;12.354;2023-05-07T05:07:55;9.90;99.90
38910;DHT22;24676;51.360;12.354;2023-05-07T05:10:39;9.90;99.90
38910;DHT22;24676;51.360;12.354;2023-05-07T05:13:25;10.00;99.90
38910;DHT22;24676;51.360;12.354;2023-05-07T05:16:09;9.90;99.90
38910;DHT22;24676;51.360;12.354;2023-05-07T05:18:53;9.90;99.90
38910;DHT22;24676;51.360;12.354;2023-05-07T05:21:38;9.90;99.90
38910;DHT22;24676;51.360;12.354;2023-05-07T05:24:22;9.80;99.90
38910;DHT22;24676;51.360;12.354;2023-05-07T05:27:06;9.80;99.90
38910;DHT22;24676;51.360;12.354;2023-05-07T05:29:51;9.80;99.90
38910;DHT22;24676;51.360;12.354;2023-05-07T05:32:35;9.80;99.90
38910;DHT22;24676;51.360;12.354;2023-05-07T05:35:19;9.80;99.90
38910;DHT22;24676;51.360;12.354;2023-05-07T05:38:03;9.80;99.90
38910;DHT22;24676;51.360;12.354;2023-05-07T05:40:48;9.80;99.90
38910;DHT22;24676;51.360;12.354;2023-05-07T05:43:32;9.80;99.90
38910;DHT22;24676;51.360;12.354;2023-05-07T05:46:16;9.80;99.90
38910;DHT22;24676;51.360;12.354;2023-05-07T05:49:00;9.80;99.90
38910;DHT22;24676;51.360;12.354;2023-05-07T05:51:44;9.90;99.90
38910;DHT22;24676;51.360;12.354;2023-05-07T05:54:29;9.90;99.90
38910;DHT22;24676;51.360;12.354;2023-05-07T05:57:13;9.90;99.90
38910;DHT22;24676;51.360;12.354;2023-05-07T05:59:57;10.00;99.90
38910;DHT22;24676;51.360;12.354;2023-05-07T06:02:42;10.00;99.90
38910;DHT22;24676;51.360;12.354;2023-05-07T06:05:26;10.00;99.90
38910;DHT22;24676;51.360;12.354;2023-05-07T06:08:10;10.00;99.90
38910;DHT22;24676;51.360;12.354;2023-05-07T06:10:55;10.00;99.90
38910;DHT22;24676;51.360;12.354;2023-05-07T06:13:39;10.10;99.90
38910;DHT22;24676;51.360;12.354;2023-05-07T06:16:24;10.20;99.90
38910;DHT22;24676;51.360;12.354;2023-05-07T06:19:08;10.20;99.90
38910;DHT22;24676;51.360;12.354;2023-05-07T06:21:52;10.20;99.90
38910;DHT22;24676;51.360;12.354;2023-05-07T06:24:36;10.20;99.90
38910;DHT22;24676;51.360;12.354;2023-05-07T06:27:21;10.30;99.90
38910;DHT22;24676;51.360;12.354;2023-05-07T06:30:05;10.40;99.90
38910;DHT22;24676;51.360;12.354;2023-05-07T06:32:50;10.40;99.90
38910;DHT22;24676;51.360;12.354;2023-05-07T06:35:34;10.50;99.90
38910;DHT22;24676;51.360;12.354;2023-05-07T06:38:18;10.50;99.90
38910;DHT22;24676;51.360;12.354;2023-05-07T06:41:02;10.60;99.90
38910;DHT22;24676;51.360;12.354;2023-05-07T06:43:46;10.60;99.90
38910;DHT22;24676;51.360;12.354;2023-05-07T06:46:30;10.70;99.90
38910;DHT22;24676;51.360;12.354;2023-05-07T06:49:15;10.80;99.90
38910;DHT22;24676;51.360;12.354;2023-05-07T06:51:59;10.80;99.90
38910;DHT22;24676;51.360;12.354;2023-05-07T06:54:45;10.70;99.90
38910;DHT22;24676;51.360;12.354;2023-05-07T06:57:29;10.80;99.90
38910;DHT22;24676;51.360;12.354;2023-05-07T07:00:14;10.80;99.90
38910;DHT22;24676;51.360;12.354;2023-05-07T07:02:58;10.90;99.90
38910;DHT22;24676;51.360;12.354;2023-05-07T07:05:43;11.00;99.90
38910;DHT22;24676;51.360;12.354;2023-05-07T07:08:27;11.10;99.90
38910;DHT22;24676;51.360;12.354;2023-05-07T07:11:11;11.00;99.90
38910;DHT22;24676;51.360;12.354;2023-05-07T07:13:55;11.00;99.90
38910;DHT22;24676;51.360;12.354;2023-05-07T07:16:40;11.10;99.90
38910;DHT22;24676;51.360;12.354;2023-05-07T07:19:25;11.20;99.90
38910;DHT22;24676;51.360;12.354;2023-05-07T07:22:09;11.20;99.90
38910;DHT22;24676;51.360;12.354;2023-05-07T07:24:54;11.30;99.90
38910;DHT22;24676;51.360;12.354;2023-05-07T07:27:38;11.50;99.90
38910;DHT22;24676;51.360;12.354;2023-05-07T07:30:25;11.70;99.90
38910;DHT22;24676;51.360;12.354;2023-05-07T07:33:10;12.00;99.90
38910;DHT22;24676;51.360;12.354;2023-05-07T07:35:55;12.10;99.90
38910;DHT22;24676;51.360;12.354;2023-05-07T07:38:39;12.20;99.90
38910;DHT22;24676;51.360;12.354;2023-05-07T07:41:23;12.30;99.90
38910;DHT22;24676;51.360;12.354;2023-05-07T07:44:08;12.40;99.90
38910;DHT22;24676;51.360;12.354;2023-05-07T07:46:53;12.40;99.90
38910;DHT22;24676;51.360;12.354;2023-05-07T07:49:37;12.20;99.90
38910;DHT22;24676;51.360;12.354;2023-05-07T07:52:21;12.10;99.90
38910;DHT22;24676;51.360;12.354;2023-05-07T07:55:06;12.10;99.90
38910;DHT22;24676;51.360;12.354;2023-05-07T07:57:50;12.10;99.90
38910;DHT22;24676;51.360;12.354;2023-05-07T08:00:35;12.10;99.90
38910;DHT22;24676;51.360;12.354;2023-05-07T08:03:19;11.90;99.90
38910;DHT22;24676;51.360;12.354;2023-05-07T08:06:03;11.80;99.90
38910;DHT22;24676;51.360;12.354;2023-05-07T08:08:47;11.70;99.90
38910;DHT22;24676;51.360;12.354;2023-05-07T08:11:32;11.70;99.90
38910;DHT22;24676;51.360;12.354;2023-05-07T08:14:16;11.70;99.90
38910;DHT22;24676;51.360;12.354;2023-05-07T08:17:00;11.80;99.90
38910;DHT22;24676;51.360;12.354;2023-05-07T08:19:44;11.80;99.90
38910;DHT22;24676;51.360;12.354;2023-05-07T08:22:28;11.70;99.90
38910;DHT22;24676;51.360;12.354;2023-05-07T08:25:13;11.50;99.90
38910;DHT22;24676;51.360;12.354;2023-05-07T08:27:57;11.50;99.90
38910;DHT22;24676;51.360;12.354;2023-05-07T08:30:41;11.50;99.90
38910;DHT22;24676;51.360;12.354;2023-05-07T08:33:25;11.50;99.90
38910;DHT22;24676;51.360;12.354;2023-05-07T08:36:09;11.70;99.90
38910;DHT22;24676;51.360;12.354;2023-05-07T08:38:54;11.70;99.90
38910;DHT22;24676;51.360;12.354;2023-05-07T08:41:39;11.70;99.90
38910;DHT22;24676;51.360;12.354;2023-05-07T08:44:26;11.70;99.90
38910;DHT22;24676;51.360;12.354;2023-05-07T08:47:12;11.60;99.90
38910;DHT22;24676;51.360;12.354;2023-05-07T08:49:56;11.60;99.90
38910;DHT22;24676;51.360;12.354;2023-05-07T08:52:40;11.60;99.90
38910;DHT22;24676;51.360;12.354;2023-05-07T08:55:25;11.50;99.90
38910;DHT22;24676;51.360;12.354;2023-05-07T08:58:09;11.60;99.90
38910;DHT22;24676;51.360;12.354;2023-05-07T09:00:54;11.50;99.90
38910;DHT22;24676;51.360;12.354;2023-05-07T09:03:38;11.50;99.90
38910;DHT22;24676;51.360;12.354;2023-05-07T09:06:22;11.50;99.90
38910;DHT22;24676;51.360;12.354;2023-05-07T09:09:07;11.60;99.90
38910;DHT22;24676;51.360;12.354;2023-05-07T09:11:57;11.70;99.90
38910;DHT22;24676;51.360;12.354;2023-05-07T09:14:43;11.70;99.90
38910;DHT22;24676;51.360;12.354;2023-05-07T09:17:28;11.70;99.90
38910;DHT22;24676;51.360;12.354;2023-05-07T09:20:12;11.80;99.90
38910;DHT22;24676;51.360;12.354;2023-05-07T09:22:57;11.80;99.90
38910;DHT22;24676;51.360;12.354;2023-05-07T09:25:40;11.80;99.90
38910;DHT22;24676;51.360;12.354;2023-05-07T09:28:25;11.80;99.90
38910;DHT22;24676;51.360;12.354;2023-05-07T09:31:10;11.80;99.90
38910;DHT22;24676;51.360;12.354;2023-05-07T09:33:55;11.70;99.90
38910;DHT22;24676;51.360;12.354;2023-05-07T09:36:40;11.80;99.90
38910;DHT22;24676;51.360;12.354;2023-05-07T09:39:25;11.80;99.90
38910;DHT22;24676;51.360;12.354;2023-05-07T09:42:09;11.70;99.90
38910;DHT22;24676;51.360;12.354;2023-05-07T09:44:55;11.80;99.90
38910;DHT22;24676;51.360;12.354;2023-05-07T09:47:42;11.80;99.90
38910;DHT22;24676;51.360;12.354;2023-05-07T09:53:30;11.80;99.90
38910;DHT22;24676;51.360;12.354;2023-05-07T09:56:14;11.80;99.90
38910;DHT22;24676;51.360;12.354;2023-05-07T09:59:00;11.80;99.90
38910;DHT22;24676;51.360;12.354;2023-05-07T10:01:45;11.80;99.90
38910;DHT22;24676;51.360;12.354;2023-05-07T10:04:31;11.70;99.90
38910;DHT22;24676;51.360;12.354;2023-05-07T10:07:16;11.70;99.90
38910;DHT22;24676;51.360;12.354;2023-05-07T10:10:01;11.80;99.90
38910;DHT22;24676;51.360;12.354;2023-05-07T10:12:47;12.00;99.90
38910;DHT22;24676;51.360;12.354;2023-05-07T10:15:31;12.10;99.90
38910;DHT22;24676;51.360;12.354;2023-05-07T10:18:16;12.30;99.90
38910;DHT22;24676;51.360;12.354;2023-05-07T10:21:11;12.50;99.90
38910;DHT22;24676;51.360;12.354;2023-05-07T10:26:50;12.90;99.90
38910;DHT22;24676;51.360;12.354;2023-05-07T10:32:49;13.00;99.90
38910;DHT22;24676;51.360;12.354;2023-05-07T10:35:42;13.00;99.90
38910;DHT22;24676;51.360;12.354;2023-05-07T10:38:27;12.80;99.90
38910;DHT22;24676;51.360;12.354;2023-05-07T10:41:12;12.70;99.90
38910;DHT22;24676;51.360;12.354;2023-05-07T10:43:56;12.70;99.90
38910;DHT22;24676;51.360;12.354;2023-05-07T10:46:41;12.80;99.90
38910;DHT22;24676;51.360;12.354;2023-05-07T10:49:25;12.80;99.90
38910;DHT22;24676;51.360;12.354;2023-05-07T10:52:21;12.80;99.90
38910;DHT22;24676;51.360;12.354;2023-05-07T11:01:05;12.90;99.90
38910;DHT22;24676;51.360;12.354;2023-05-07T11:04:15;13.00;99.90
38910;DHT22;24676;51.360;12.354;2023-05-07T11:15:36;13.00;99.90
38910;DHT22;24676;51.360;12.354;2023-05-07T11:18:20;12.80;99.90
38910;DHT22;24676;51.360;12.354;2023-05-07T11:21:05;12.70;99.90
38910;DHT22;24676;51.360;12.354;2023-05-07T11:26:50;12.70;99.90
38910;DHT22;24676;51.360;12.354;2023-05-07T11:29:34;12.80;99.90
38910;DHT22;24676;51.360;12.354;2023-05-07T11:32:28;13.10;99.90
38910;DHT22;24676;51.360;12.354;2023-05-07T11:35:15;13.00;99.90
38910;DHT22;24676;51.360;12.354;2023-05-07T11:38:00;13.00;99.90
38910;DHT22;24676;51.360;12.354;2023-05-07T11:40:57;13.30;99.90
38910;DHT22;24676;51.360;12.354;2023-05-07T11:43:54;13.50;99.90
38910;DHT22;24676;51.360;12.354;2023-05-07T11:46:43;13.60;99.90
38910;DHT22;24676;51.360;12.354;2023-05-07T11:49:28;14.10;99.90
38910;DHT22;24676;51.360;12.354;2023-05-07T11:52:13;14.20;99.90
38910;DHT22;24676;51.360;12.354;2023-05-07T11:54:59;13.90;99.90
38910;DHT22;24676;51.360;12.354;2023-05-07T11:57:47;13.70;99.90
38910;DHT22;24676;51.360;12.354;2023-05-07T12:00:31;13.70;99.90
38910;DHT22;24676;51.360;12.354;2023-05-07T12:03:15;13.70;99.90
38910;DHT22;24676;51.360;12.354;2023-05-07T12:06:00;13.80;99.90
38910;DHT22;24676;51.360;12.354;2023-05-07T12:08:46;13.80;99.90
38910;DHT22;24676;51.360;12.354;2023-05-07T12:11:30;13.90;99.90
38910;DHT22;24676;51.360;12.354;2023-05-07T12:14:14;13.90;99.90
38910;DHT22;24676;51.360;12.354;2023-05-07T12:17:01;14.10;99.90
38910;DHT22;24676;51.360;12.354;2023-05-07T12:19:48;14.00;99.90
38910;DHT22;24676;51.360;12.354;2023-05-07T12:22:33;13.80;99.90
38910;DHT22;24676;51.360;12.354;2023-05-07T12:25:19;14.10;99.90
38910;DHT22;24676;51.360;12.354;2023-05-07T12:28:04;14.40;99.90
38910;DHT22;24676;51.360;12.354;2023-05-07T12:30:50;14.80;98.60
38910;DHT22;24676;51.360;12.354;2023-05-07T12:33:36;15.00;94.70
38910;DHT22;24676;51.360;12.354;2023-05-07T12:36:20;14.90;94.40
38910;DHT22;24676;51.360;12.354;2023-05-07T12:39:06;15.10;94.80
38910;DHT22;24676;51.360;12.354;2023-05-07T12:41:54;15.10;95.50
38910;DHT22;24676;51.360;12.354;2023-05-07T12:44:38;15.00;96.30
38910;DHT22;24676;51.360;12.354;2023-05-07T12:47:23;14.90;97.10
38910;DHT22;24676;51.360;12.354;2023-05-07T12:50:07;14.70;97.30
38910;DHT22;24676;51.360;12.354;2023-05-07T12:52:52;14.80;98.10
38910;DHT22;24676;51.360;12.354;2023-05-07T12:55:50;15.30;94.20
38910;DHT22;24676;51.360;12.354;2023-05-07T12:58:35;15.30;90.30
38910;DHT22;24676;51.360;12.354;2023-05-07T13:01:20;15.00;90.60
38910;DHT22;24676;51.360;12.354;2023-05-07T13:04:05;15.00;90.90
38910;DHT22;24676;51.360;12.354;2023-05-07T13:06:49;15.00;90.20
38910;DHT22;24676;51.360;12.354;2023-05-07T13:09:34;14.90;89.30
38910;DHT22;24676;51.360;12.354;2023-05-07T13:12:18;15.00;89.20
38910;DHT22;24676;51.360;12.354;2023-05-07T13:15:02;15.00;91.10
38910;DHT22;24676;51.360;12.354;2023-05-07T13:17:46;15.20;90.00
38910;DHT22;24676;51.360;12.354;2023-05-07T13:20:31;15.10;90.60
38910;DHT22;24676;51.360;12.354;2023-05-07T13:23:15;14.80;92.60
38910;DHT22;24676;51.360;12.354;2023-05-07T13:26:00;14.90;94.00
38910;DHT22;24676;51.360;12.354;2023-05-07T13:28:44;14.90;92.50
38910;DHT22;24676;51.360;12.354;2023-05-07T13:31:28;14.90;92.30
38910;DHT22;24676;51.360;12.354;2023-05-07T13:34:13;14.90;91.40
38910;DHT22;24676;51.360;12.354;2023-05-07T13:36:57;14.90;92.30
38910;DHT22;24676;51.360;12.354;2023-05-07T13:39:41;14.60;91.30
38910;DHT22;24676;51.360;12.354;2023-05-07T13:42:26;14.60;93.20
38910;DHT22;24676;51.360;12.354;2023-05-07T13:45:10;14.50;95.10
38910;DHT22;24676;51.360;12.354;2023-05-07T13:47:55;14.70;96.00
38910;DHT22;24676;51.360;12.354;2023-05-07T13:50:39;14.50;97.10
38910;DHT22;24676;51.360;12.354;2023-05-07T13:53:24;14.40;98.00
38910;DHT22;24676;51.360;12.354;2023-05-07T13:56:08;14.60;97.80
38910;DHT22;24676;51.360;12.354;2023-05-07T13:58:53;14.70;95.10
38910;DHT22;24676;51.360;12.354;2023-05-07T14:01:37;14.80;95.40
38910;DHT22;24676;51.360;12.354;2023-05-07T14:04:22;15.00;94.70
38910;DHT22;24676;51.360;12.354;2023-05-07T14:07:06;15.10;93.50
38910;DHT22;24676;51.360;12.354;2023-05-07T14:09:50;14.80;92.50
38910;DHT22;24676;51.360;12.354;2023-05-07T14:12:35;14.60;93.60
38910;DHT22;24676;51.360;12.354;2023-05-07T14:15:19;14.50;96.20
38910;DHT22;24676;51.360;12.354;2023-05-07T14:18:03;14.60;96.40
38910;DHT22;24676;51.360;12.354;2023-05-07T14:20:47;14.80;95.10
38910;DHT22;24676;51.360;12.354;2023-05-07T14:23:33;14.90;93.70
38910;DHT22;24676;51.360;12.354;2023-05-07T14:26:17;14.80;94.70
38910;DHT22;24676;51.360;12.354;2023-05-07T14:29:02;14.90;94.60
38910;DHT22;24676;51.360;12.354;2023-05-07T14:31:47;14.90;94.10
38910;DHT22;24676;51.360;12.354;2023-05-07T14:34:32;14.90;93.70
38910;DHT22;24676;51.360;12.354;2023-05-07T14:37:16;15.00;92.90
38910;DHT22;24676;51.360;12.354;2023-05-07T14:40:01;15.00;93.50
38910;DHT22;24676;51.360;12.354;2023-05-07T14:42:46;15.00;93.90
38910;DHT22;24676;51.360;12.354;2023-05-07T14:45:30;15.10;93.80
38910;DHT22;24676;51.360;12.354;2023-05-07T14:48:15;15.10;91.40
38910;DHT22;24676;51.360;12.354;2023-05-07T14:50:59;14.80;92.70
38910;DHT22;24676;51.360;12.354;2023-05-07T14:53:44;14.70;92.50
38910;DHT22;24676;51.360;12.354;2023-05-07T14:56:28;14.70;92.10
38910;DHT22;24676;51.360;12.354;2023-05-07T14:59:13;14.70;92.40
38910;DHT22;24676;51.360;12.354;2023-05-07T15:01:59;14.80;92.00
38910;DHT22;24676;51.360;12.354;2023-05-07T15:04:44;14.90;92.50
38910;DHT22;24676;51.360;12.354;2023-05-07T15:07:32;14.70;94.20
38910;DHT22;24676;51.360;12.354;2023-05-07T15:10:18;14.70;94.70
38910;DHT22;24676;51.360;12.354;2023-05-07T15:13:02;14.70;94.30
38910;DHT22;24676;51.360;12.354;2023-05-07T15:15:47;14.70;93.30
38910;DHT22;24676;51.360;12.354;2023-05-07T15:18:31;14.60;93.80
38910;DHT22;24676;51.360;12.354;2023-05-07T15:21:16;14.60;95.30
38910;DHT22;24676;51.360;12.354;2023-05-07T15:24:01;14.70;94.40
38910;DHT22;24676;51.360;12.354;2023-05-07T15:26:46;14.50;94.60
38910;DHT22;24676;51.360;12.354;2023-05-07T15:29:32;14.50;95.30
38910;DHT22;24676;51.360;12.354;2023-05-07T15:32:16;14.40;95.70
38910;DHT22;24676;51.360;12.354;2023-05-07T15:35:00;14.40;96.30
38910;DHT22;24676;51.360;12.354;2023-05-07T15:37:45;14.40;95.50
38910;DHT22;24676;51.360;12.354;2023-05-07T15:40:32;14.40;96.90
38910;DHT22;24676;51.360;12.354;2023-05-07T15:43:19;14.40;96.80
38910;DHT22;24676;51.360;12.354;2023-05-07T15:46:03;14.40;96.30
38910;DHT22;24676;51.360;12.354;2023-05-07T15:48:48;14.20;97.00
38910;DHT22;24676;51.360;12.354;2023-05-07T15:51:34;14.20;98.40
38910;DHT22;24676;51.360;12.354;2023-05-07T15:54:19;14.20;99.00
38910;DHT22;24676;51.360;12.354;2023-05-07T15:57:04;14.20;98.70
38910;DHT22;24676;51.360;12.354;2023-05-07T15:59:50;14.10;99.30
38910;DHT22;24676;51.360;12.354;2023-05-07T16:02:34;13.90;99.90
38910;DHT22;24676;51.360;12.354;2023-05-07T16:05:19;13.80;99.90
38910;DHT22;24676;51.360;12.354;2023-05-07T16:08:03;13.70;99.90
38910;DHT22;24676;51.360;12.354;2023-05-07T16:10:48;13.60;99.90
38910;DHT22;24676;51.360;12.354;2023-05-07T16:13:33;13.70;99.90
38910;DHT22;24676;51.360;12.354;2023-05-07T16:16:18;13.80;99.90
38910;DHT22;24676;51.360;12.354;2023-05-07T16:19:02;13.70;99.90
38910;DHT22;24676;51.360;12.354;2023-05-07T16:21:46;13.60;99.90
38910;DHT22;24676;51.360;12.354;2023-05-07T16:24:31;13.50;99.90
38910;DHT22;24676;51.360;12.354;2023-05-07T16:27:15;13.30;99.90
38910;DHT22;24676;51.360;12.354;2023-05-07T16:29:59;13.20;99.90
38910;DHT22;24676;51.360;12.354;2023-05-07T16:32:44;13.20;99.90
38910;DHT22;24676;51.360;12.354;2023-05-07T16:35:28;13.20;99.90
38910;DHT22;24676;51.360;12.354;2023-05-07T16:38:12;13.00;99.90
38910;DHT22;24676;51.360;12.354;2023-05-07T16:40:57;12.90;99.90
38910;DHT22;24676;51.360;12.354;2023-05-07T16:43:41;12.80;99.90
38910;DHT22;24676;51.360;12.354;2023-05-07T16:46:26;12.70;99.90
38910;DHT22;24676;51.360;12.354;2023-05-07T16:49:10;12.60;99.90
38910;DHT22;24676;51.360;12.354;2023-05-07T16:51:54;12.60;99.90
38910;DHT22;24676;51.360;12.354;2023-05-07T16:54:39;12.70;99.90
38910;DHT22;24676;51.360;12.354;2023-05-07T16:57:24;12.70;99.90
38910;DHT22;24676;51.360;12.354;2023-05-07T17:00:08;12.60;99.90
38910;DHT22;24676;51.360;12.354;2023-05-07T17:02:54;12.50;99.90
38910;DHT22;24676;51.360;12.354;2023-05-07T17:05:38;12.50;99.90
38910;DHT22;24676;51.360;12.354;2023-05-07T17:08:23;12.50;99.90
38910;DHT22;24676;51.360;12.354;2023-05-07T17:11:07;12.40;99.90
38910;DHT22;24676;51.360;12.354;2023-05-07T17:13:51;12.40;99.90
38910;DHT22;24676;51.360;12.354;2023-05-07T17:16:36;12.30;99.90
38910;DHT22;24676;51.360;12.354;2023-05-07T17:19:20;12.30;99.90
38910;DHT22;24676;51.360;12.354;2023-05-07T17:22:04;12.20;99.90
38910;DHT22;24676;51.360;12.354;2023-05-07T17:24:48;12.20;99.90
38910;DHT22;24676;51.360;12.354;2023-05-07T17:27:33;12.20;99.90
38910;DHT22;24676;51.360;12.354;2023-05-07T17:30:17;12.10;99.90
38910;DHT22;24676;51.360;12.354;2023-05-07T17:33:01;12.10;99.90
38910;DHT22;24676;51.360;12.354;2023-05-07T17:35:46;12.10;99.90